Clarksburg, New Jersey
Current Conditions -  °F | °C
As of 5:23 AM on Saturday 25 Oct 2014 (Local Time) from KWRI Reporting Station
Haze Haze  
Wind Chill: 46°   Ceiling: Unl
Heat Index: 46°   Visibility: 4mi
Dew Point: 36°   Wind: 3mph
Humidity: 66%   Direction: 280°W
Pressure: 29.88"   Gusts: NA
Location:  40.19°N, 74.44°W
Report Text: KWRI 250923Z AUTO 28003KT 4SM R24/4500FT HZ CLR 08/02 A2988 RMK AO2
Loading
Personal Weather Stations






























Interactive Weather Map
Tropical Storm Tracking
New forecast layout! Learn more

10-Day Weather Forecast

Advertisements
Track Severe Weather on mobile